createdAt,value
2023-04-02T00:00:02.427Z,4750.2080000000005
2023-04-02T00:05:02.365Z,4875.662
2023-04-02T00:10:02.354Z,4869.886
2023-04-02T00:15:02.442Z,4867.726
2023-04-02T00:20:02.418Z,5002.536
2023-04-02T00:25:02.369Z,6739.034000000001
2023-04-02T00:30:02.384Z,7104.883
2023-04-02T00:35:02.424Z,6970.198
2023-04-02T00:40:02.415Z,6772.883
2023-04-02T00:45:02.438Z,6691.786
2023-04-02T00:50:02.414Z,6927.194
2023-04-02T00:55:02.454Z,6472.548
2023-04-02T01:00:02.460Z,4810.264
2023-04-02T01:05:02.521Z,4741.069
2023-04-02T01:10:02.427Z,5069.284000000001
2023-04-02T01:15:02.420Z,4968.774
2023-04-02T01:20:02.473Z,4726.812
2023-04-02T01:25:02.397Z,5435.01
2023-04-02T01:30:02.468Z,6730.121
2023-04-02T01:35:02.410Z,6776.495
2023-04-02T01:40:02.444Z,6875.232
2023-04-02T01:45:02.459Z,6873.162
2023-04-02T01:50:02.531Z,7009.716
2023-04-02T01:55:02.631Z,6444.174
2023-04-02T02:00:02.598Z,6018.317
2023-04-02T02:05:02.654Z,4788.502
2023-04-02T02:10:02.645Z,174.177
2023-04-02T02:15:02.689Z,208.779
2023-04-02T02:20:02.492Z,197.109
2023-04-02T02:25:02.552Z,320.295
2023-04-02T02:30:02.515Z,2187.15
2023-04-02T02:35:02.533Z,3119.424
2023-04-02T02:40:02.514Z,2220.837
2023-04-02T02:45:02.497Z,2242.408
2023-04-02T02:50:02.480Z,2262.7580000000003
2023-04-02T02:55:02.534Z,2284.1240000000003
2023-04-02T03:00:02.510Z,1318.574
2023-04-02T03:05:02.554Z,958.756
2023-04-02T03:10:02.542Z,459.074
2023-04-02T03:15:02.573Z,665.042
2023-04-02T03:20:02.609Z,269.95300000000003
2023-04-02T03:25:02.528Z,184.526
2023-04-02T03:30:02.568Z,1761.005
2023-04-02T03:35:02.491Z,2847.701
2023-04-02T03:40:02.617Z,2177.1820000000002
2023-04-02T03:45:02.523Z,2250.974
2023-04-02T03:50:02.546Z,2152.827
2023-04-02T03:55:02.583Z,2810.263
2023-04-02T04:00:02.624Z,2386.107
2023-04-02T04:05:02.597Z,2402.955
2023-04-02T04:10:02.633Z,2485
2023-04-02T04:15:02.658Z,2493.3160000000003
2023-04-02T04:20:02.826Z,664.953
2023-04-02T04:25:02.787Z,163.566
2023-04-02T04:30:02.795Z,242.477
2023-04-02T04:35:01.203Z,1071.714
2023-04-02T04:40:01.157Z,1088.207
2023-04-02T04:45:01.205Z,2312.305
2023-04-02T04:50:01.214Z,2616.629
2023-04-02T04:55:01.207Z,2358.304
2023-04-02T05:00:01.201Z,2304.033
2023-04-02T05:05:01.207Z,3078.06
2023-04-02T05:10:01.237Z,5439.116
2023-04-02T05:15:01.176Z,4530.013
2023-04-02T05:20:01.242Z,921.513
2023-04-02T05:25:01.291Z,187.185
2023-04-02T05:30:01.342Z,216.157
2023-04-02T05:35:01.342Z,281.789
2023-04-02T05:40:01.414Z,290.871
2023-04-02T05:45:01.372Z,1133.88
2023-04-02T05:50:01.388Z,2181.924
2023-04-02T05:55:01.350Z,2483.132
2023-04-02T06:00:01.445Z,2427.05
2023-04-02T06:05:01.289Z,2249.7870000000003
2023-04-02T06:10:01.260Z,2271.314
2023-04-02T06:15:01.266Z,2026.673
2023-04-02T06:20:01.312Z,319.96500000000003
2023-04-02T06:25:01.273Z,308.199
2023-04-02T06:30:01.250Z,289.214
2023-04-02T06:35:01.278Z,364.764
2023-04-02T06:40:01.291Z,510.34700000000004
2023-04-02T06:45:01.329Z,193.356
2023-04-02T06:50:01.300Z,1920.0330000000001
2023-04-02T06:55:01.276Z,2044.887
2023-04-02T07:00:01.286Z,2292.6820000000002
2023-04-02T07:05:01.338Z,2370.606
2023-04-02T07:10:01.291Z,2395.366
2023-04-02T07:15:01.258Z,2439.826
2023-04-02T07:20:01.363Z,3359.577
2023-04-02T07:25:01.301Z,4051.716
2023-04-02T07:30:01.377Z,612.712
2023-04-02T07:35:01.309Z,478.257
2023-04-02T07:40:01.298Z,427.118
2023-04-02T07:45:02.089Z,422.54900000000004
2023-04-02T07:50:01.464Z,420.97700000000003
2023-04-02T07:55:01.723Z,542.979
2023-04-02T08:00:01.492Z,625.697
2023-04-02T08:05:01.474Z,583.139
2023-04-02T08:10:01.494Z,1313.454
2023-04-02T08:15:01.516Z,2326.467
2023-04-02T08:20:01.526Z,2367.596
2023-04-02T08:25:01.590Z,2319.248
2023-04-02T08:30:01.305Z,2153.951
2023-04-02T08:35:01.410Z,2569.913
2023-04-02T08:40:01.410Z,2406.3450000000003
2023-04-02T08:45:05.905Z,290.169
2023-04-02T08:50:01.388Z,228.482
2023-04-02T08:55:01.397Z,199.298
2023-04-02T09:00:01.319Z,208.054
2023-04-02T09:05:01.464Z,219.769
2023-04-02T09:10:01.381Z,209.657
2023-04-02T09:15:01.395Z,213.61100000000002
2023-04-02T09:20:01.469Z,250.80700000000002
2023-04-02T09:25:01.494Z,410.113
2023-04-02T09:30:01.432Z,401.144
2023-04-02T09:35:01.705Z,357.206
2023-04-02T09:40:01.435Z,256.509
2023-04-02T09:45:01.434Z,1316.102
2023-04-02T09:50:01.495Z,2265.991
2023-04-02T09:55:01.579Z,2294.121
2023-04-02T10:00:01.612Z,2378.267
2023-04-02T10:05:01.663Z,2881.772
2023-04-02T10:10:01.627Z,897.8240000000001
2023-04-02T10:15:01.701Z,369.896
2023-04-02T10:20:01.560Z,358.872
2023-04-02T10:25:01.440Z,255.836
2023-04-02T10:30:01.548Z,214.137
2023-04-02T10:35:01.420Z,208.446
2023-04-02T10:40:01.563Z,208.653
2023-04-02T10:45:01.556Z,209.205
2023-04-02T10:50:01.549Z,208.64000000000001
2023-04-02T10:55:01.567Z,277.33
2023-04-02T11:00:01.544Z,780.6320000000001
2023-04-02T11:05:02.160Z,346.782
2023-04-02T11:10:01.511Z,294.332
2023-04-02T11:15:01.519Z,217.235
2023-04-02T11:20:01.571Z,216.823
2023-04-02T11:25:01.526Z,222.40200000000002
2023-04-02T11:30:01.593Z,227.312
2023-04-02T11:35:06.923Z,229.21200000000002
2023-04-02T11:40:01.670Z,1801.944
2023-04-02T11:45:01.648Z,2326.872
2023-04-02T11:50:01.716Z,2322.905
2023-04-02T11:55:01.546Z,2489.181
2023-04-02T12:00:01.552Z,2575.411
2023-04-02T12:05:01.498Z,2205.53
2023-04-02T12:10:01.566Z,496.11
2023-04-02T12:15:01.582Z,584.493
2023-04-02T12:20:02.788Z,1169.933
2023-04-02T12:25:01.563Z,1455.82
2023-04-02T12:30:01.552Z,765.679
2023-04-02T12:35:01.523Z,319.85
2023-04-02T12:40:01.548Z,256.958
2023-04-02T12:45:01.572Z,205.008
2023-04-02T12:50:01.617Z,205.448
2023-04-02T12:55:01.656Z,205.642
2023-04-02T13:00:01.729Z,206.601
2023-04-02T13:05:01.769Z,212.822
2023-04-02T13:10:01.733Z,282.493
2023-04-02T13:15:01.808Z,418.968
2023-04-02T13:20:01.665Z,520.197
2023-04-02T13:25:01.670Z,468.336
2023-04-02T13:30:01.703Z,388.07800000000003
2023-04-02T13:35:01.624Z,888.746
2023-04-02T13:40:02.312Z,1137.382
2023-04-02T13:45:01.698Z,2275.385
2023-04-02T13:50:01.625Z,2256.916
2023-04-02T13:55:01.730Z,2280.135
2023-04-02T14:00:01.608Z,2953.968
2023-04-02T14:05:01.654Z,1163.289
2023-04-02T14:10:01.621Z,335.22700000000003
2023-04-02T14:15:01.681Z,225.928
2023-04-02T14:20:01.848Z,213.237
2023-04-02T14:25:01.818Z,220.067
2023-04-02T14:30:01.790Z,218.333
2023-04-02T14:35:01.671Z,201.687
2023-04-02T14:40:01.698Z,185.959
2023-04-02T14:45:01.640Z,271.89300000000003
2023-04-02T14:50:01.778Z,307.798
2023-04-02T14:55:01.658Z,301.871
2023-04-02T15:00:01.885Z,225.02
2023-04-02T15:05:01.829Z,186.084
2023-04-02T15:10:01.711Z,186.254
2023-04-02T15:15:01.670Z,183.534
2023-04-02T15:20:01.729Z,182.109
2023-04-02T15:25:01.750Z,205.497
2023-04-02T15:30:01.788Z,231.379
2023-04-02T15:35:01.825Z,353.515
2023-04-02T15:40:01.823Z,1030.309
2023-04-02T15:45:01.869Z,2445.733
2023-04-02T15:50:01.875Z,2376.067
2023-04-02T15:55:01.860Z,2525.5860000000002
2023-04-02T16:00:01.765Z,3029.195
2023-04-02T16:05:01.783Z,357.43600000000004
2023-04-02T16:10:01.771Z,168.583
2023-04-02T16:15:01.743Z,166.454
2023-04-02T16:20:02.251Z,277.355
2023-04-02T16:25:01.760Z,282.454
2023-04-02T16:30:01.786Z,273.95
2023-04-02T16:35:13.131Z,203.567
2023-04-02T16:40:01.772Z,206.08
2023-04-02T16:45:01.831Z,205.053
2023-04-02T16:50:01.776Z,203.77100000000002
2023-04-02T16:55:01.798Z,197.38400000000001
2023-04-02T17:00:01.862Z,192.27
2023-04-02T17:05:01.849Z,266.34000000000003
2023-04-02T17:10:01.807Z,492.623
2023-04-02T17:15:01.804Z,487.956
2023-04-02T17:20:01.791Z,306.385
2023-04-02T17:25:01.790Z,627.399
2023-04-02T17:30:01.849Z,694.4830000000001
2023-04-02T17:35:01.902Z,1597.705
2023-04-02T17:40:01.985Z,4408.487
2023-04-02T17:45:01.917Z,4334.189
2023-04-02T17:50:02.046Z,2833.585
2023-04-02T17:55:01.983Z,4041.88
2023-04-02T18:00:01.962Z,5220.26
2023-04-02T18:05:01.923Z,3179.722
2023-04-02T18:10:02.081Z,3186.7980000000002
2023-04-02T18:15:01.988Z,1923.4
2023-04-02T18:20:02.044Z,2675.791
2023-04-02T18:25:02.017Z,2712.417
2023-04-02T18:30:02.035Z,853.833
2023-04-02T18:35:02.022Z,573.248
2023-04-02T18:40:01.861Z,2859.772
2023-04-02T18:45:01.907Z,3688.625
2023-04-02T18:50:01.865Z,3666.2870000000003
2023-04-02T18:55:01.935Z,2612.37
2023-04-02T19:00:01.850Z,2975.712
2023-04-02T19:05:01.928Z,2992.26
2023-04-02T19:10:01.934Z,2485.382
2023-04-02T19:15:01.918Z,2488.375
2023-04-02T19:20:01.966Z,2565.372
2023-04-02T19:25:01.999Z,2670.968
2023-04-02T19:30:01.971Z,2735.395
2023-04-02T19:35:01.884Z,2774.7110000000002
2023-04-02T19:40:01.935Z,3018.234
2023-04-02T19:45:01.953Z,2721.341
2023-04-02T19:50:01.935Z,3113.532
2023-04-02T19:55:01.984Z,983.5020000000001
2023-04-02T20:00:01.950Z,514.644
2023-04-02T20:05:01.932Z,2721.18
2023-04-02T20:10:01.950Z,5131.094
2023-04-02T20:15:01.971Z,5197.366
2023-04-02T20:20:01.928Z,5695.518
2023-04-02T20:25:02.068Z,5189.831
2023-04-02T20:30:02.040Z,5787.876
2023-04-02T20:35:01.992Z,7021.192
2023-04-02T20:40:01.951Z,7019.838
2023-04-02T20:45:01.973Z,7028.981
2023-04-02T20:50:02.070Z,7059.895
2023-04-02T20:55:02.042Z,7088.031
2023-04-02T21:00:01.987Z,7285.487
2023-04-02T21:05:02.065Z,7670.24
2023-04-02T21:10:02.015Z,5988.603
2023-04-02T21:15:03.041Z,5054.5740000000005
2023-04-02T21:20:02.094Z,4921.887
2023-04-02T21:25:02.004Z,5261.136
2023-04-02T21:30:02.035Z,5013.071
2023-04-02T21:35:02.039Z,4777.78
2023-04-02T21:40:01.997Z,5582.698
2023-04-02T21:45:02.025Z,6748.704
2023-04-02T21:50:02.182Z,6978.202
2023-04-02T21:55:02.070Z,6918.433
2023-04-02T22:00:02.106Z,6805.729
2023-04-02T22:05:02.128Z,5257.528
2023-04-02T22:10:02.061Z,2255.122
2023-04-02T22:15:02.083Z,2252.273
2023-04-02T22:20:02.158Z,2264.046
2023-04-02T22:25:02.193Z,2554.687
2023-04-02T22:30:02.208Z,1997.932
2023-04-02T22:35:02.260Z,282.57800000000003
2023-04-02T22:40:02.244Z,289.299
2023-04-02T22:45:02.205Z,245.536
2023-04-02T22:50:02.266Z,163.45000000000002
2023-04-02T22:55:02.236Z,162.768
2023-04-02T23:00:02.239Z,1022.4110000000001
2023-04-02T23:05:02.316Z,4235.546
2023-04-02T23:10:03.893Z,6537.372
2023-04-02T23:15:02.110Z,6868.71
2023-04-02T23:20:02.314Z,6910.9800000000005
2023-04-02T23:25:02.137Z,6924.769
2023-04-02T23:30:02.165Z,6898.421
2023-04-02T23:35:02.111Z,6831.636
2023-04-02T23:40:02.151Z,6852.168000000001
2023-04-02T23:45:02.119Z,6862.164
2023-04-02T23:50:02.105Z,7170.527
2023-04-02T23:55:02.301Z,5971.6050000000005
